createdAt,value
2023-02-25T00:01:41.674Z,3.91
2023-02-25T00:04:09.513Z,3.94
2023-02-25T00:06:36.045Z,3.89
2023-02-25T00:09:02.646Z,3.80
2023-02-25T00:11:30.271Z,3.81
2023-02-25T00:13:57.543Z,3.84
2023-02-25T00:16:25.544Z,3.79
2023-02-25T00:18:57.366Z,3.94
2023-02-25T00:21:24.966Z,3.91
2023-02-25T00:23:53.614Z,3.84
2023-02-25T00:26:21.056Z,3.81
2023-02-25T00:28:48.469Z,3.73
2023-02-25T00:31:21.371Z,3.74
2023-02-25T00:33:49.167Z,3.73
2023-02-25T00:36:21.253Z,3.73
2023-02-25T00:38:49.463Z,3.74
2023-02-25T00:41:18.311Z,3.71
2023-02-25T00:43:51.063Z,3.72
2023-02-25T00:46:17.909Z,3.71
2023-02-25T00:48:44.574Z,3.69
2023-02-25T00:51:20.355Z,3.77
2023-02-25T00:53:47.190Z,3.71
2023-02-25T00:56:15.943Z,3.65
2023-02-25T00:58:45.092Z,3.69
2023-02-25T01:01:24.868Z,3.63
2023-02-25T01:03:53.504Z,3.62
2023-02-25T01:06:20.730Z,3.50
2023-02-25T01:08:47.597Z,3.55
2023-02-25T01:11:27.787Z,3.57
2023-02-25T01:13:55.969Z,3.54
2023-02-25T01:16:26.441Z,3.53
2023-02-25T01:18:58.152Z,3.53
2023-02-25T01:21:30.547Z,3.58
2023-02-25T01:24:00.630Z,3.55
2023-02-25T01:26:29.217Z,3.66
2023-02-25T01:28:56.439Z,3.64
2023-02-25T01:31:25.074Z,3.57
2023-02-25T01:33:51.761Z,3.53
2023-02-25T01:36:18.317Z,3.48
2023-02-25T01:38:44.854Z,3.38
2023-02-25T01:41:11.430Z,3.49
2023-02-25T01:43:37.956Z,3.59
2023-02-25T01:46:04.540Z,3.54
2023-02-25T01:48:35.449Z,3.41
2023-02-25T01:51:06.881Z,3.42
2023-02-25T01:53:37.293Z,3.42
2023-02-25T01:56:04.860Z,3.38
2023-02-25T01:58:33.641Z,3.43
2023-02-25T02:01:00.977Z,3.41
2023-02-25T02:03:32.512Z,3.37
2023-02-25T02:06:13.401Z,3.47
2023-02-25T02:08:42.329Z,3.36
2023-02-25T02:11:09.032Z,3.36
2023-02-25T02:13:39.227Z,3.30
2023-02-25T02:16:21.410Z,3.35
2023-02-25T02:18:54.173Z,3.25
2023-02-25T02:22:00.558Z,3.28
2023-02-25T02:24:51.249Z,3.23
2023-02-25T02:27:26.355Z,3.19
2023-02-25T02:30:26.301Z,3.25
2023-02-25T02:33:14.169Z,3.25
2023-02-25T02:35:41.089Z,3.37
2023-02-25T02:38:19.891Z,3.28
2023-02-25T02:40:58.413Z,3.28
2023-02-25T02:43:46.859Z,3.30
2023-02-25T02:46:26.490Z,3.25
2023-02-25T02:49:01.619Z,3.23
2023-02-25T02:52:03.721Z,3.19
2023-02-25T02:54:35.739Z,3.19
2023-02-25T02:57:03.554Z,3.33
2023-02-25T02:59:38.638Z,3.12
2023-02-25T03:02:17.630Z,3.08
2023-02-25T03:04:48.725Z,3.08
2023-02-25T03:07:18.009Z,3.04
2023-02-25T03:09:51.881Z,3.12
2023-02-25T03:12:18.656Z,3.21
2023-02-25T03:14:45.554Z,3.18
2023-02-25T03:17:27.704Z,3.13
2023-02-25T03:20:08.121Z,3.05
2023-02-25T03:22:39.382Z,3.05
2023-02-25T03:25:09.980Z,3.14
2023-02-25T03:27:43.316Z,3.16
2023-02-25T03:30:18.437Z,2.97
2023-02-25T03:32:55.047Z,2.90
2023-02-25T03:35:24.189Z,2.80
2023-02-25T03:37:56.256Z,2.62
2023-02-25T03:40:24.199Z,2.76
2023-02-25T03:42:57.369Z,2.78
2023-02-25T03:45:24.861Z,2.90
2023-02-25T03:47:51.951Z,2.87
2023-02-25T03:50:25.971Z,2.80
2023-02-25T03:52:52.655Z,2.91
2023-02-25T03:55:20.048Z,2.85
2023-02-25T03:57:49.517Z,2.88
2023-02-25T04:00:19.297Z,2.78
2023-02-25T04:02:47.478Z,2.75
2023-02-25T04:05:16.107Z,2.89
2023-02-25T04:07:42.835Z,2.90
2023-02-25T04:10:12.655Z,2.83
2023-02-25T04:12:40.388Z,2.76
2023-02-25T04:15:07.902Z,2.72
2023-02-25T04:17:35.535Z,2.64
2023-02-25T04:20:02.465Z,2.65
2023-02-25T04:22:29.022Z,2.66
2023-02-25T04:24:55.561Z,2.72
2023-02-25T04:27:22.095Z,2.66
2023-02-25T04:29:48.635Z,2.66
2023-02-25T04:32:15.383Z,2.65
2023-02-25T04:34:42.029Z,2.65
2023-02-25T04:37:10.010Z,2.90
2023-02-25T04:39:37.309Z,2.99
2023-02-25T04:42:04.075Z,2.99
2023-02-25T04:44:31.097Z,3.01
2023-02-25T04:46:57.666Z,2.97
2023-02-25T04:49:24.504Z,2.58
2023-02-25T04:51:51.744Z,2.52
2023-02-25T04:54:20.184Z,2.52
2023-02-25T04:56:47.357Z,2.54
2023-02-25T04:59:14.614Z,2.55
2023-02-25T05:01:41.491Z,2.40
2023-02-25T05:04:08.652Z,2.39
2023-02-25T05:06:35.235Z,2.32
2023-02-25T05:09:02.232Z,2.16
2023-02-25T05:11:30.751Z,2.45
2023-02-25T05:13:57.419Z,2.33
2023-02-25T05:16:25.267Z,2.35
2023-02-25T05:18:53.148Z,2.41
2023-02-25T05:21:22.796Z,2.44
2023-02-25T05:23:51.690Z,2.48
2023-02-25T05:26:23.258Z,2.47
2023-02-25T05:28:55.375Z,2.41
2023-02-25T05:31:23.591Z,2.49
2023-02-25T05:33:50.524Z,2.35
2023-02-25T05:36:17.586Z,2.30
2023-02-25T05:38:45.144Z,2.33
2023-02-25T05:41:12.453Z,2.22
2023-02-25T05:43:39.885Z,2.25
2023-02-25T05:46:11.790Z,2.33
2023-02-25T05:48:43.067Z,2.37
2023-02-25T05:51:18.787Z,2.44
2023-02-25T05:53:48.039Z,2.49
2023-02-25T05:56:17.642Z,2.53
2023-02-25T05:58:44.433Z,2.48
2023-02-25T06:01:13.917Z,2.46
2023-02-25T06:03:45.894Z,2.39
2023-02-25T06:06:13.668Z,2.39
2023-02-25T06:08:41.942Z,2.32
2023-02-25T06:11:09.040Z,2.29
2023-02-25T06:13:35.663Z,2.20
2023-02-25T06:16:05.938Z,2.31
2023-02-25T06:18:36.772Z,2.38
2023-02-25T06:21:05.556Z,2.35
2023-02-25T06:23:33.025Z,2.44
2023-02-25T06:25:59.665Z,2.39
2023-02-25T06:28:26.322Z,2.36
2023-02-25T06:30:52.909Z,2.28
2023-02-25T06:33:19.421Z,2.29
2023-02-25T06:35:46.096Z,2.27
2023-02-25T06:38:12.659Z,2.20
2023-02-25T06:40:39.214Z,2.09
2023-02-25T06:43:05.897Z,1.98
2023-02-25T06:45:32.493Z,1.87
2023-02-25T06:47:59.056Z,1.92
2023-02-25T06:50:25.545Z,1.95
2023-02-25T06:52:52.106Z,1.81
2023-02-25T06:55:19.458Z,1.77
2023-02-25T06:57:46.072Z,1.67
2023-02-25T07:00:13.077Z,1.68
2023-02-25T07:02:40.096Z,1.62
2023-02-25T07:05:06.951Z,1.73
2023-02-25T07:07:33.513Z,1.68
2023-02-25T07:10:00.205Z,1.80
2023-02-25T07:12:26.726Z,1.69
2023-02-25T07:14:53.325Z,1.88
2023-02-25T07:17:20.411Z,1.89
2023-02-25T07:19:46.916Z,1.85
2023-02-25T07:22:16.480Z,1.65
2023-02-25T07:24:43.963Z,1.63
2023-02-25T07:27:13.027Z,1.73
2023-02-25T07:29:40.373Z,1.59
2023-02-25T07:32:09.195Z,1.69
2023-02-25T07:34:37.916Z,1.81
2023-02-25T07:37:04.451Z,1.97
2023-02-25T07:39:31.021Z,2.00
2023-02-25T07:41:57.563Z,2.07
2023-02-25T07:44:24.148Z,1.96
2023-02-25T07:46:50.760Z,1.98
2023-02-25T07:49:17.260Z,1.45
2023-02-25T07:51:43.789Z,1.43
2023-02-25T07:54:10.361Z,1.34
2023-02-25T07:56:36.934Z,1.27
2023-02-25T07:59:03.507Z,1.41
2023-02-25T08:01:33.176Z,1.34
2023-02-25T08:04:04.234Z,1.49
2023-02-25T08:06:32.094Z,1.50
2023-02-25T08:08:58.674Z,1.66
2023-02-25T08:11:26.928Z,1.78
2023-02-25T08:13:53.892Z,2.16
2023-02-25T08:16:21.554Z,2.33
2023-02-25T08:18:48.414Z,2.48
2023-02-25T08:21:18.143Z,2.50
2023-02-25T08:23:45.156Z,2.54
2023-02-25T08:26:11.785Z,2.54
2023-02-25T08:28:39.684Z,1.77
2023-02-25T08:31:11.382Z,1.84
2023-02-25T08:33:40.624Z,2.09
2023-02-25T08:36:28.461Z,2.33
2023-02-25T08:38:57.450Z,2.14
2023-02-25T08:41:26.330Z,2.03
2023-02-25T08:43:55.354Z,2.14
2023-02-25T08:46:24.188Z,2.53
2023-02-25T08:48:52.472Z,2.79
2023-02-25T08:51:20.818Z,2.75
2023-02-25T08:53:47.595Z,2.95
2023-02-25T08:56:16.507Z,2.86
2023-02-25T08:58:44.031Z,2.82
2023-02-25T09:01:13.865Z,2.89
2023-02-25T09:03:51.322Z,3.18
2023-02-25T09:06:25.535Z,3.05
2023-02-25T09:08:52.654Z,3.05
2023-02-25T09:11:20.394Z,3.12
2023-02-25T09:13:47.234Z,3.35
2023-02-25T09:16:17.572Z,3.37
2023-02-25T09:18:48.679Z,3.64
2023-02-25T09:21:15.372Z,3.71
2023-02-25T09:23:42.372Z,3.85
2023-02-25T09:26:09.076Z,3.78
2023-02-25T09:28:36.484Z,4.28
2023-02-25T09:31:03.087Z,4.47
2023-02-25T09:33:31.900Z,4.41
2023-02-25T09:36:28.349Z,4.33
2023-02-25T09:38:58.333Z,4.20
2023-02-25T09:41:32.189Z,4.29
2023-02-25T09:44:05.920Z,4.43
2023-02-25T09:46:34.868Z,4.30
2023-02-25T09:49:31.717Z,4.17
2023-02-25T09:52:07.798Z,4.25
2023-02-25T09:54:40.889Z,4.70
2023-02-25T09:57:10.436Z,4.95
2023-02-25T09:59:37.359Z,4.70
2023-02-25T10:02:17.249Z,4.46
2023-02-25T10:04:55.374Z,4.55
2023-02-25T10:07:27.252Z,4.78
2023-02-25T10:10:02.838Z,4.76
2023-02-25T10:12:46.250Z,5.12
2023-02-25T10:15:52.359Z,5.38
2023-02-25T10:18:38.421Z,5.11
2023-02-25T10:21:50.028Z,5.17
2023-02-25T10:24:29.346Z,5.40
2023-02-25T10:27:03.380Z,5.48
2023-02-25T10:29:42.296Z,5.31
2023-02-25T10:32:22.517Z,5.57
2023-02-25T10:34:52.012Z,5.68
2023-02-25T10:37:36.062Z,5.01
2023-02-25T10:40:05.380Z,5.38
2023-02-25T10:42:32.002Z,5.54
2023-02-25T10:45:08.212Z,5.34
2023-02-25T10:47:37.696Z,5.60
2023-02-25T10:50:42.880Z,5.62
2023-02-25T10:53:20.592Z,5.02
2023-02-25T10:55:52.800Z,5.41
2023-02-25T10:58:36.629Z,5.10
2023-02-25T11:01:19.848Z,5.63
2023-02-25T11:03:49.112Z,5.79
2023-02-25T11:06:24.267Z,5.65
2023-02-25T11:08:52.913Z,5.82
2023-02-25T11:11:29.691Z,5.59
2023-02-25T11:14:13.241Z,5.38
2023-02-25T11:16:42.402Z,5.30
2023-02-25T11:19:27.812Z,5.19
2023-02-25T11:21:55.037Z,5.22
2023-02-25T11:24:36.932Z,5.50
2023-02-25T11:27:06.952Z,5.73
2023-02-25T11:29:39.845Z,5.46
2023-02-25T11:32:17.363Z,5.47
2023-02-25T11:34:51.995Z,5.37
2023-02-25T11:37:39.739Z,5.86
2023-02-25T11:40:20.491Z,6.06
2023-02-25T11:43:13.801Z,6.14
2023-02-25T11:45:49.501Z,6.44
2023-02-25T11:48:29.751Z,5.67
2023-02-25T11:51:18.419Z,6.05
2023-02-25T11:54:12.660Z,6.15
2023-02-25T11:56:50.961Z,6.09
2023-02-25T11:59:37.235Z,6.02
2023-02-25T12:02:27.370Z,6.27
2023-02-25T12:05:03.391Z,6.43
2023-02-25T12:08:05.102Z,6.40
2023-02-25T12:11:13.911Z,6.35
2023-02-25T12:14:08.746Z,6.72
2023-02-25T12:16:47.477Z,6.74
2023-02-25T12:19:25.909Z,6.51
2023-02-25T12:22:14.854Z,6.61
2023-02-25T12:25:12.287Z,6.83
2023-02-25T12:27:57.035Z,6.94
2023-02-25T12:30:42.523Z,6.94
2023-02-25T12:33:23.873Z,7.07
2023-02-25T12:36:11.832Z,7.05
2023-02-25T12:38:57.229Z,7.16
2023-02-25T12:41:40.554Z,7.16
2023-02-25T12:44:25.998Z,6.76
2023-02-25T12:47:10.661Z,6.57
2023-02-25T12:49:37.179Z,6.24
2023-02-25T12:52:09.805Z,6.58
2023-02-25T12:54:36.322Z,6.65
2023-02-25T12:57:24.793Z,6.40
2023-02-25T13:00:11.642Z,6.47
2023-02-25T13:02:50.517Z,6.61
2023-02-25T13:05:37.962Z,6.60
2023-02-25T13:08:13.937Z,6.38
2023-02-25T13:11:17.724Z,6.54
2023-02-25T13:14:03.586Z,6.38
2023-02-25T13:16:42.770Z,6.53
2023-02-25T13:19:21.065Z,6.81
2023-02-25T13:22:09.801Z,6.87
2023-02-25T13:25:19.890Z,6.97
2023-02-25T13:27:58.575Z,6.98
2023-02-25T13:30:25.523Z,6.88
2023-02-25T13:33:11.295Z,6.95
2023-02-25T13:35:56.099Z,6.86
2023-02-25T13:38:28.829Z,7.11
2023-02-25T13:41:26.325Z,7.01
2023-02-25T13:44:11.363Z,6.94
2023-02-25T13:46:44.009Z,7.05
2023-02-25T13:49:31.718Z,7.34
2023-02-25T13:52:07.461Z,7.03
2023-02-25T13:54:42.365Z,7.23
2023-02-25T13:57:17.935Z,7.22
2023-02-25T14:00:04.343Z,7.09
2023-02-25T14:03:08.011Z,7.03
2023-02-25T14:05:59.493Z,7.31
2023-02-25T14:09:02.499Z,7.47
2023-02-25T14:11:55.654Z,7.25
2023-02-25T14:14:30.415Z,7.32
2023-02-25T14:17:22.938Z,6.94
2023-02-25T14:20:34.118Z,7.26
2023-02-25T14:23:23.535Z,7.38
2023-02-25T14:26:12.498Z,7.40
2023-02-25T14:29:06.630Z,7.34
2023-02-25T14:31:46.890Z,7.28
2023-02-25T14:34:31.295Z,7.30
2023-02-25T14:37:19.395Z,7.23
2023-02-25T14:40:02.099Z,7.11
2023-02-25T14:42:46.822Z,7.32
2023-02-25T14:45:13.545Z,7.52
2023-02-25T14:48:00.054Z,7.40
2023-02-25T14:50:31.530Z,7.52
2023-02-25T14:53:33.535Z,7.61
2023-02-25T14:56:47.530Z,7.52
2023-02-25T14:59:32.414Z,7.18
2023-02-25T15:02:17.690Z,7.34
2023-02-25T15:05:08.527Z,7.56
2023-02-25T15:07:42.621Z,7.47
2023-02-25T15:10:18.048Z,7.40
2023-02-25T15:13:16.734Z,7.49
2023-02-25T15:16:20.933Z,7.27
2023-02-25T15:19:26.177Z,7.16
2023-02-25T15:22:18.571Z,7.17
2023-02-25T15:24:46.828Z,7.31
2023-02-25T15:27:38.200Z,7.28
2023-02-25T15:30:13.111Z,7.17
2023-02-25T15:33:08.256Z,7.18
2023-02-25T15:35:34.798Z,7.09
2023-02-25T15:38:02.320Z,7.15
2023-02-25T15:40:32.010Z,7.12
2023-02-25T15:43:10.508Z,7.18
2023-02-25T15:45:38.702Z,7.21
2023-02-25T15:48:08.110Z,7.30
2023-02-25T15:50:43.992Z,7.38
2023-02-25T15:53:24.765Z,7.53
2023-02-25T15:55:53.490Z,7.38
2023-02-25T15:58:23.227Z,7.36
2023-02-25T16:00:54.073Z,7.30
2023-02-25T16:03:34.725Z,7.17
2023-02-25T16:06:32.289Z,7.15
2023-02-25T16:09:12.108Z,7.23
2023-02-25T16:11:51.514Z,7.05
2023-02-25T16:14:24.609Z,7.09
2023-02-25T16:16:58.843Z,7.10
2023-02-25T16:19:28.902Z,6.98
2023-02-25T16:22:03.225Z,7.09
2023-02-25T16:24:30.790Z,7.12
2023-02-25T16:27:18.151Z,7.16
2023-02-25T16:30:06.210Z,7.14
2023-02-25T16:32:43.087Z,7.19
2023-02-25T16:35:21.416Z,7.13
2023-02-25T16:38:27.070Z,7.08
2023-02-25T16:40:54.267Z,7.13
2023-02-25T16:43:27.574Z,7.14
2023-02-25T16:45:58.808Z,7.18
2023-02-25T16:48:32.055Z,7.18
2023-02-25T16:51:09.132Z,7.15
2023-02-25T16:53:41.384Z,7.12
2023-02-25T16:56:20.097Z,7.14
2023-02-25T16:58:58.197Z,7.10
2023-02-25T17:01:28.830Z,7.11
2023-02-25T17:04:02.471Z,7.14
2023-02-25T17:06:29.115Z,7.11
2023-02-25T17:08:55.629Z,7.06
2023-02-25T17:11:25.133Z,7.09
2023-02-25T17:13:55.925Z,7.07
2023-02-25T17:16:43.639Z,7.14
2023-02-25T17:19:11.677Z,7.20
2023-02-25T17:21:41.673Z,7.17
2023-02-25T17:24:13.595Z,7.18
2023-02-25T17:26:43.033Z,7.12
2023-02-25T17:29:12.733Z,7.11
2023-02-25T17:31:45.726Z,7.12
2023-02-25T17:34:16.461Z,7.11
2023-02-25T17:36:44.036Z,7.12
2023-02-25T17:39:16.220Z,7.13
2023-02-25T17:41:43.949Z,7.15
2023-02-25T17:44:12.494Z,7.13
2023-02-25T17:46:44.594Z,7.12
2023-02-25T17:49:28.878Z,7.16
2023-02-25T17:51:59.016Z,7.16
2023-02-25T17:54:27.790Z,7.16
2023-02-25T17:57:01.799Z,7.18
2023-02-25T17:59:28.335Z,7.19
2023-02-25T18:02:01.116Z,7.20
2023-02-25T18:04:41.312Z,7.19
2023-02-25T18:07:22.173Z,7.21
2023-02-25T18:09:49.719Z,7.25
2023-02-25T18:12:25.810Z,7.23
2023-02-25T18:14:57.963Z,7.21
2023-02-25T18:17:28.928Z,7.22
2023-02-25T18:19:59.026Z,7.24
2023-02-25T18:22:33.308Z,7.25
2023-02-25T18:25:03.129Z,7.26
2023-02-25T18:27:32.372Z,7.28
2023-02-25T18:30:13.989Z,7.26
2023-02-25T18:32:40.652Z,7.28
2023-02-25T18:35:07.849Z,7.27
2023-02-25T18:37:34.730Z,7.31
2023-02-25T18:40:01.229Z,7.30
2023-02-25T18:42:27.854Z,7.29
2023-02-25T18:44:54.484Z,7.26
2023-02-25T18:47:20.997Z,7.27
2023-02-25T18:49:48.671Z,7.25
2023-02-25T18:52:23.801Z,7.26
2023-02-25T18:54:50.699Z,7.25
2023-02-25T18:57:24.183Z,7.28
2023-02-25T18:59:51.810Z,7.23
2023-02-25T19:02:36.315Z,7.21
2023-02-25T19:05:03.946Z,7.19
2023-02-25T19:07:33.430Z,7.19
2023-02-25T19:10:00.326Z,7.24
2023-02-25T19:12:29.731Z,7.24
2023-02-25T19:15:13.032Z,7.23
2023-02-25T19:17:39.856Z,7.23
2023-02-25T19:20:07.032Z,7.22
2023-02-25T19:22:33.703Z,7.26
2023-02-25T19:25:00.632Z,7.28
2023-02-25T19:27:29.366Z,7.25
2023-02-25T19:29:58.941Z,7.29
2023-02-25T19:32:26.613Z,7.36
2023-02-25T19:34:53.331Z,7.35
2023-02-25T19:37:20.598Z,7.33
2023-02-25T19:39:47.211Z,7.39
2023-02-25T19:42:14.026Z,7.40
2023-02-25T19:44:40.627Z,7.44
2023-02-25T19:47:08.045Z,7.45
2023-02-25T19:49:34.546Z,7.52
2023-02-25T19:52:01.215Z,7.44
2023-02-25T19:54:27.730Z,7.44
2023-02-25T19:56:54.255Z,7.42
2023-02-25T19:59:21.251Z,7.43
2023-02-25T20:01:47.853Z,7.46
2023-02-25T20:04:14.482Z,7.47
2023-02-25T20:06:41.066Z,7.53
2023-02-25T20:09:09.722Z,7.50
2023-02-25T20:11:36.730Z,7.56
2023-02-25T20:14:05.056Z,7.62
2023-02-25T20:16:32.884Z,7.54
2023-02-25T20:18:59.543Z,7.55
2023-02-25T20:21:27.397Z,7.57
2023-02-25T20:23:54.038Z,7.57
2023-02-25T20:26:23.104Z,7.56
2023-02-25T20:28:53.011Z,7.55
2023-02-25T20:31:20.399Z,7.59
2023-02-25T20:33:49.970Z,7.54
2023-02-25T20:36:22.681Z,7.57
2023-02-25T20:39:14.035Z,7.55
2023-02-25T20:41:44.856Z,7.53
2023-02-25T20:44:12.418Z,7.56
2023-02-25T20:46:40.714Z,7.53
2023-02-25T20:49:08.230Z,7.55
2023-02-25T20:51:34.985Z,7.52
2023-02-25T20:54:03.867Z,7.52
2023-02-25T20:56:33.406Z,7.54
2023-02-25T20:59:00.013Z,7.59
2023-02-25T21:01:26.620Z,7.58
2023-02-25T21:03:53.460Z,7.59
2023-02-25T21:06:23.911Z,7.62
2023-02-25T21:08:51.724Z,7.65
2023-02-25T21:11:20.125Z,7.65
2023-02-25T21:13:47.688Z,7.65
2023-02-25T21:16:17.016Z,7.63
2023-02-25T21:18:45.172Z,7.61
2023-02-25T21:21:13.902Z,7.63
2023-02-25T21:23:42.155Z,7.64
2023-02-25T21:26:11.048Z,7.65
2023-02-25T21:28:38.684Z,7.62
2023-02-25T21:31:09.188Z,7.61
2023-02-25T21:33:37.565Z,7.61
2023-02-25T21:36:06.724Z,7.59
2023-02-25T21:38:33.839Z,7.62
2023-02-25T21:41:09.699Z,7.62
2023-02-25T21:43:37.863Z,7.57
2023-02-25T21:46:07.686Z,7.57
2023-02-25T21:48:35.816Z,7.57
2023-02-25T21:51:02.411Z,7.59
2023-02-25T21:53:29.001Z,7.58
2023-02-25T21:55:56.830Z,7.57
2023-02-25T21:58:23.845Z,7.58
2023-02-25T22:00:50.677Z,7.55
2023-02-25T22:03:17.775Z,7.54
2023-02-25T22:05:46.496Z,7.53
2023-02-25T22:08:14.072Z,7.54
2023-02-25T22:10:41.032Z,7.50
2023-02-25T22:13:08.670Z,7.49
2023-02-25T22:15:35.494Z,7.50
2023-02-25T22:18:02.194Z,7.54
2023-02-25T22:20:28.861Z,7.47
2023-02-25T22:22:58.032Z,7.45
2023-02-25T22:25:24.890Z,7.48
2023-02-25T22:27:52.189Z,7.47
2023-02-25T22:30:19.188Z,7.46
2023-02-25T22:32:45.767Z,7.45
2023-02-25T22:35:12.392Z,7.43
2023-02-25T22:37:39.720Z,7.38
2023-02-25T22:40:06.857Z,7.40
2023-02-25T22:42:33.436Z,7.39
2023-02-25T22:44:59.946Z,7.36
2023-02-25T22:47:26.512Z,7.33
2023-02-25T22:49:53.135Z,7.38
2023-02-25T22:52:19.710Z,7.35
2023-02-25T22:54:46.517Z,7.29
2023-02-25T22:57:13.092Z,7.28
2023-02-25T22:59:39.893Z,7.33
2023-02-25T23:02:06.481Z,7.32
2023-02-25T23:04:33.357Z,7.29
2023-02-25T23:07:01.188Z,7.33
2023-02-25T23:09:27.975Z,7.32
2023-02-25T23:11:55.314Z,7.36
2023-02-25T23:14:21.866Z,7.27
2023-02-25T23:16:48.507Z,7.31
2023-02-25T23:19:17.190Z,7.31
2023-02-25T23:21:44.689Z,7.33
2023-02-25T23:24:19.615Z,7.26
2023-02-25T23:26:47.863Z,7.22
2023-02-25T23:29:14.462Z,7.21
2023-02-25T23:31:47.175Z,7.15
2023-02-25T23:34:21.667Z,7.14
2023-02-25T23:36:49.050Z,7.21
2023-02-25T23:39:16.106Z,7.13
2023-02-25T23:41:43.688Z,7.07
2023-02-25T23:44:13.347Z,6.99
2023-02-25T23:46:43.457Z,7.01
2023-02-25T23:49:13.710Z,6.97
2023-02-25T23:51:45.914Z,7.05
2023-02-25T23:54:15.627Z,6.99
2023-02-25T23:56:42.589Z,6.94
2023-02-25T23:59:10.535Z,6.91
